sensor_id;sensor_type;location;lat;lon;timestamp;P1;durP1;ratioP1;P2;durP2;ratioP2
23517;SDS011;11935;50.878;4.392;2023-03-14T00:00:33;4.35;;;0.88;;
23517;SDS011;11935;50.878;4.392;2023-03-14T00:02:59;6.85;;;1.20;;
23517;SDS011;11935;50.878;4.392;2023-03-14T00:05:25;6.95;;;0.95;;
23517;SDS011;11935;50.878;4.392;2023-03-14T00:07:51;4.70;;;1.17;;
23517;SDS011;11935;50.878;4.392;2023-03-14T00:10:18;6.97;;;1.30;;
23517;SDS011;11935;50.878;4.392;2023-03-14T00:12:44;9.43;;;1.45;;
23517;SDS011;11935;50.878;4.392;2023-03-14T00:15:10;4.22;;;1.17;;
23517;SDS011;11935;50.878;4.392;2023-03-14T00:17:37;7.95;;;1.27;;
23517;SDS011;11935;50.878;4.392;2023-03-14T00:20:05;5.20;;;1.25;;
23517;SDS011;11935;50.878;4.392;2023-03-14T00:22:35;7.38;;;1.50;;
23517;SDS011;11935;50.878;4.392;2023-03-14T00:25:01;2.97;;;0.93;;
23517;SDS011;11935;50.878;4.392;2023-03-14T00:27:28;9.25;;;1.52;;
23517;SDS011;11935;50.878;4.392;2023-03-14T00:29:54;7.45;;;1.15;;
23517;SDS011;11935;50.878;4.392;2023-03-14T00:32:20;7.70;;;1.67;;
23517;SDS011;11935;50.878;4.392;2023-03-14T00:34:46;6.05;;;1.75;;
23517;SDS011;11935;50.878;4.392;2023-03-14T00:37:12;8.00;;;1.40;;
23517;SDS011;11935;50.878;4.392;2023-03-14T00:39:38;5.93;;;1.10;;
23517;SDS011;11935;50.878;4.392;2023-03-14T00:42:04;6.75;;;1.45;;
23517;SDS011;11935;50.878;4.392;2023-03-14T00:44:30;5.28;;;0.88;;
23517;SDS011;11935;50.878;4.392;2023-03-14T00:46:57;7.32;;;1.00;;
23517;SDS011;11935;50.878;4.392;2023-03-14T00:49:23;9.93;;;1.60;;
23517;SDS011;11935;50.878;4.392;2023-03-14T00:51:49;6.75;;;1.30;;
23517;SDS011;11935;50.878;4.392;2023-03-14T00:54:16;6.75;;;1.20;;
23517;SDS011;11935;50.878;4.392;2023-03-14T00:56:42;9.82;;;1.67;;
23517;SDS011;11935;50.878;4.392;2023-03-14T00:59:08;7.82;;;1.08;;
23517;SDS011;11935;50.878;4.392;2023-03-14T01:01:35;11.20;;;1.52;;
23517;SDS011;11935;50.878;4.392;2023-03-14T01:04:01;7.15;;;1.48;;
23517;SDS011;11935;50.878;4.392;2023-03-14T01:06:27;8.60;;;1.00;;
23517;SDS011;11935;50.878;4.392;2023-03-14T01:08:54;12.20;;;1.48;;
23517;SDS011;11935;50.878;4.392;2023-03-14T01:11:25;7.45;;;1.77;;
23517;SDS011;11935;50.878;4.392;2023-03-14T01:13:51;10.38;;;1.65;;
23517;SDS011;11935;50.878;4.392;2023-03-14T01:16:18;12.63;;;2.03;;
23517;SDS011;11935;50.878;4.392;2023-03-14T01:18:45;9.48;;;1.55;;
23517;SDS011;11935;50.878;4.392;2023-03-14T01:21:21;10.15;;;1.25;;
23517;SDS011;11935;50.878;4.392;2023-03-14T01:23:48;8.45;;;1.23;;
23517;SDS011;11935;50.878;4.392;2023-03-14T01:26:16;11.77;;;1.65;;
23517;SDS011;11935;50.878;4.392;2023-03-14T01:28:46;7.78;;;1.23;;
23517;SDS011;11935;50.878;4.392;2023-03-14T01:31:13;12.18;;;1.42;;
23517;SDS011;11935;50.878;4.392;2023-03-14T01:33:39;9.07;;;1.25;;
23517;SDS011;11935;50.878;4.392;2023-03-14T01:36:06;11.88;;;1.40;;
23517;SDS011;11935;50.878;4.392;2023-03-14T01:38:33;12.20;;;2.20;;
23517;SDS011;11935;50.878;4.392;2023-03-14T01:40:59;11.63;;;2.15;;
23517;SDS011;11935;50.878;4.392;2023-03-14T01:43:25;9.00;;;1.30;;
23517;SDS011;11935;50.878;4.392;2023-03-14T01:48:35;13.15;;;1.90;;
23517;SDS011;11935;50.878;4.392;2023-03-14T01:51:01;7.78;;;1.13;;
23517;SDS011;11935;50.878;4.392;2023-03-14T01:53:28;8.00;;;1.20;;
23517;SDS011;11935;50.878;4.392;2023-03-14T01:55:55;8.20;;;1.27;;
23517;SDS011;11935;50.878;4.392;2023-03-14T01:58:24;3.65;;;0.85;;
23517;SDS011;11935;50.878;4.392;2023-03-14T02:00:52;4.40;;;0.70;;
23517;SDS011;11935;50.878;4.392;2023-03-14T02:03:18;4.03;;;0.88;;
23517;SDS011;11935;50.878;4.392;2023-03-14T02:05:47;5.05;;;0.60;;
23517;SDS011;11935;50.878;4.392;2023-03-14T02:08:14;2.50;;;0.70;;
23517;SDS011;11935;50.878;4.392;2023-03-14T02:10:45;5.80;;;0.90;;
23517;SDS011;11935;50.878;4.392;2023-03-14T02:13:12;4.55;;;1.10;;
23517;SDS011;11935;50.878;4.392;2023-03-14T02:15:38;3.78;;;0.90;;
23517;SDS011;11935;50.878;4.392;2023-03-14T02:18:04;3.85;;;0.60;;
23517;SDS011;11935;50.878;4.392;2023-03-14T02:20:38;2.88;;;0.70;;
23517;SDS011;11935;50.878;4.392;2023-03-14T02:23:08;4.65;;;0.73;;
23517;SDS011;11935;50.878;4.392;2023-03-14T02:28:00;3.67;;;0.80;;
23517;SDS011;11935;50.878;4.392;2023-03-14T02:30:27;6.40;;;0.85;;
23517;SDS011;11935;50.878;4.392;2023-03-14T02:32:55;2.33;;;0.70;;
23517;SDS011;11935;50.878;4.392;2023-03-14T02:35:23;2.78;;;0.50;;
23517;SDS011;11935;50.878;4.392;2023-03-14T02:40:45;4.20;;;0.80;;
23517;SDS011;11935;50.878;4.392;2023-03-14T02:43:12;6.30;;;1.35;;
23517;SDS011;11935;50.878;4.392;2023-03-14T02:48:09;5.63;;;0.90;;
23517;SDS011;11935;50.878;4.392;2023-03-14T02:50:36;2.53;;;0.93;;
23517;SDS011;11935;50.878;4.392;2023-03-14T02:53:03;5.28;;;1.42;;
23517;SDS011;11935;50.878;4.392;2023-03-14T02:55:29;5.90;;;1.20;;
23517;SDS011;11935;50.878;4.392;2023-03-14T02:57:55;6.55;;;1.40;;
23517;SDS011;11935;50.878;4.392;2023-03-14T03:00:21;3.45;;;1.65;;
23517;SDS011;11935;50.878;4.392;2023-03-14T03:02:47;6.25;;;1.50;;
23517;SDS011;11935;50.878;4.392;2023-03-14T03:05:13;6.68;;;2.00;;
23517;SDS011;11935;50.878;4.392;2023-03-14T03:07:39;8.02;;;2.80;;
23517;SDS011;11935;50.878;4.392;2023-03-14T03:10:06;9.55;;;2.90;;
23517;SDS011;11935;50.878;4.392;2023-03-14T03:12:32;9.35;;;3.05;;
23517;SDS011;11935;50.878;4.392;2023-03-14T03:14:58;9.30;;;2.60;;
23517;SDS011;11935;50.878;4.392;2023-03-14T03:17:24;9.80;;;3.10;;
23517;SDS011;11935;50.878;4.392;2023-03-14T03:19:50;7.28;;;2.95;;
23517;SDS011;11935;50.878;4.392;2023-03-14T03:22:16;9.73;;;1.88;;
23517;SDS011;11935;50.878;4.392;2023-03-14T03:24:42;7.47;;;2.70;;
23517;SDS011;11935;50.878;4.392;2023-03-14T03:27:09;9.60;;;2.60;;
23517;SDS011;11935;50.878;4.392;2023-03-14T03:29:35;7.05;;;2.50;;
23517;SDS011;11935;50.878;4.392;2023-03-14T03:32:01;9.65;;;2.50;;
23517;SDS011;11935;50.878;4.392;2023-03-14T03:34:27;6.78;;;2.25;;
23517;SDS011;11935;50.878;4.392;2023-03-14T03:36:55;12.02;;;3.10;;
23517;SDS011;11935;50.878;4.392;2023-03-14T03:39:21;6.45;;;2.28;;
23517;SDS011;11935;50.878;4.392;2023-03-14T03:41:48;11.82;;;3.08;;
23517;SDS011;11935;50.878;4.392;2023-03-14T03:44:14;10.95;;;3.38;;
23517;SDS011;11935;50.878;4.392;2023-03-14T03:46:40;16.15;;;4.60;;
23517;SDS011;11935;50.878;4.392;2023-03-14T03:49:06;8.75;;;3.35;;
23517;SDS011;11935;50.878;4.392;2023-03-14T03:51:32;9.43;;;3.60;;
23517;SDS011;11935;50.878;4.392;2023-03-14T03:53:58;9.65;;;3.92;;
23517;SDS011;11935;50.878;4.392;2023-03-14T03:56:24;8.52;;;3.88;;
23517;SDS011;11935;50.878;4.392;2023-03-14T03:58:50;15.70;;;3.80;;
23517;SDS011;11935;50.878;4.392;2023-03-14T04:01:16;8.68;;;3.47;;
23517;SDS011;11935;50.878;4.392;2023-03-14T04:03:42;9.32;;;4.25;;
23517;SDS011;11935;50.878;4.392;2023-03-14T04:06:09;10.25;;;4.38;;
23517;SDS011;11935;50.878;4.392;2023-03-14T04:08:36;9.25;;;2.63;;
23517;SDS011;11935;50.878;4.392;2023-03-14T04:11:03;8.77;;;3.22;;
23517;SDS011;11935;50.878;4.392;2023-03-14T04:13:29;10.50;;;2.88;;
23517;SDS011;11935;50.878;4.392;2023-03-14T04:15:55;6.30;;;3.00;;
23517;SDS011;11935;50.878;4.392;2023-03-14T04:18:22;7.75;;;2.95;;
23517;SDS011;11935;50.878;4.392;2023-03-14T04:20:52;6.25;;;2.30;;
23517;SDS011;11935;50.878;4.392;2023-03-14T04:23:18;11.48;;;3.53;;
23517;SDS011;11935;50.878;4.392;2023-03-14T04:25:44;9.30;;;3.00;;
23517;SDS011;11935;50.878;4.392;2023-03-14T04:28:10;6.63;;;3.92;;
23517;SDS011;11935;50.878;4.392;2023-03-14T04:30:36;11.35;;;3.25;;
23517;SDS011;11935;50.878;4.392;2023-03-14T04:33:02;5.88;;;1.67;;
23517;SDS011;11935;50.878;4.392;2023-03-14T04:35:30;5.03;;;2.35;;
23517;SDS011;11935;50.878;4.392;2023-03-14T04:37:56;8.43;;;2.85;;
23517;SDS011;11935;50.878;4.392;2023-03-14T04:40:22;7.18;;;2.70;;
23517;SDS011;11935;50.878;4.392;2023-03-14T04:42:48;8.63;;;3.05;;
23517;SDS011;11935;50.878;4.392;2023-03-14T04:45:14;6.53;;;2.40;;
23517;SDS011;11935;50.878;4.392;2023-03-14T04:47:40;5.22;;;2.72;;
23517;SDS011;11935;50.878;4.392;2023-03-14T04:50:07;5.63;;;2.17;;
23517;SDS011;11935;50.878;4.392;2023-03-14T04:52:33;5.53;;;2.65;;
23517;SDS011;11935;50.878;4.392;2023-03-14T04:54:59;6.47;;;3.03;;
23517;SDS011;11935;50.878;4.392;2023-03-14T04:57:25;3.83;;;1.77;;
23517;SDS011;11935;50.878;4.392;2023-03-14T04:59:51;7.95;;;1.95;;
23517;SDS011;11935;50.878;4.392;2023-03-14T05:02:17;8.27;;;2.70;;
23517;SDS011;11935;50.878;4.392;2023-03-14T05:04:43;4.68;;;2.10;;
23517;SDS011;11935;50.878;4.392;2023-03-14T05:07:09;4.20;;;1.55;;
23517;SDS011;11935;50.878;4.392;2023-03-14T05:09:35;5.22;;;2.83;;
23517;SDS011;11935;50.878;4.392;2023-03-14T05:12:02;2.95;;;2.00;;
23517;SDS011;11935;50.878;4.392;2023-03-14T05:14:28;4.30;;;2.20;;
23517;SDS011;11935;50.878;4.392;2023-03-14T05:16:54;6.03;;;2.40;;
23517;SDS011;11935;50.878;4.392;2023-03-14T05:19:20;5.07;;;2.45;;
23517;SDS011;11935;50.878;4.392;2023-03-14T05:21:46;6.90;;;2.25;;
23517;SDS011;11935;50.878;4.392;2023-03-14T05:24:12;5.95;;;2.00;;
23517;SDS011;11935;50.878;4.392;2023-03-14T05:26:38;5.18;;;2.20;;
23517;SDS011;11935;50.878;4.392;2023-03-14T05:29:04;4.30;;;2.00;;
23517;SDS011;11935;50.878;4.392;2023-03-14T05:31:30;5.22;;;2.38;;
23517;SDS011;11935;50.878;4.392;2023-03-14T05:33:56;3.67;;;2.20;;
23517;SDS011;11935;50.878;4.392;2023-03-14T05:36:22;2.42;;;1.27;;
23517;SDS011;11935;50.878;4.392;2023-03-14T05:38:48;4.63;;;1.98;;
23517;SDS011;11935;50.878;4.392;2023-03-14T05:41:14;4.88;;;1.90;;
23517;SDS011;11935;50.878;4.392;2023-03-14T05:43:40;4.22;;;2.13;;
23517;SDS011;11935;50.878;4.392;2023-03-14T05:46:06;3.65;;;1.92;;
23517;SDS011;11935;50.878;4.392;2023-03-14T05:48:32;4.53;;;2.33;;
23517;SDS011;11935;50.878;4.392;2023-03-14T05:50:58;5.03;;;2.33;;
23517;SDS011;11935;50.878;4.392;2023-03-14T05:53:25;3.72;;;2.38;;
23517;SDS011;11935;50.878;4.392;2023-03-14T05:55:54;5.10;;;2.90;;
23517;SDS011;11935;50.878;4.392;2023-03-14T05:58:20;3.50;;;2.65;;
23517;SDS011;11935;50.878;4.392;2023-03-14T06:00:47;6.05;;;2.97;;
23517;SDS011;11935;50.878;4.392;2023-03-14T06:03:13;3.08;;;2.15;;
23517;SDS011;11935;50.878;4.392;2023-03-14T06:05:39;3.90;;;2.47;;
23517;SDS011;11935;50.878;4.392;2023-03-14T06:08:05;3.83;;;2.20;;
23517;SDS011;11935;50.878;4.392;2023-03-14T06:10:31;3.92;;;2.55;;
23517;SDS011;11935;50.878;4.392;2023-03-14T06:12:57;4.57;;;2.70;;
23517;SDS011;11935;50.878;4.392;2023-03-14T06:15:23;4.43;;;2.33;;
23517;SDS011;11935;50.878;4.392;2023-03-14T06:17:49;4.32;;;2.60;;
23517;SDS011;11935;50.878;4.392;2023-03-14T06:20:15;2.88;;;1.95;;
23517;SDS011;11935;50.878;4.392;2023-03-14T06:22:42;5.97;;;2.42;;
23517;SDS011;11935;50.878;4.392;2023-03-14T06:25:08;3.88;;;2.20;;
23517;SDS011;11935;50.878;4.392;2023-03-14T06:27:34;5.57;;;2.20;;
23517;SDS011;11935;50.878;4.392;2023-03-14T06:30:00;3.78;;;1.85;;
23517;SDS011;11935;50.878;4.392;2023-03-14T06:32:26;4.10;;;2.10;;
23517;SDS011;11935;50.878;4.392;2023-03-14T06:34:52;5.22;;;1.73;;
23517;SDS011;11935;50.878;4.392;2023-03-14T06:37:18;5.40;;;2.17;;
23517;SDS011;11935;50.878;4.392;2023-03-14T06:39:45;3.85;;;2.13;;
23517;SDS011;11935;50.878;4.392;2023-03-14T06:42:11;5.07;;;2.70;;
23517;SDS011;11935;50.878;4.392;2023-03-14T06:44:37;6.22;;;2.03;;
23517;SDS011;11935;50.878;4.392;2023-03-14T06:47:03;2.60;;;1.88;;
23517;SDS011;11935;50.878;4.392;2023-03-14T06:49:29;2.75;;;1.88;;
23517;SDS011;11935;50.878;4.392;2023-03-14T06:51:55;5.80;;;4.10;;
23517;SDS011;11935;50.878;4.392;2023-03-14T06:54:21;5.47;;;4.28;;
23517;SDS011;11935;50.878;4.392;2023-03-14T06:56:47;5.50;;;3.75;;
23517;SDS011;11935;50.878;4.392;2023-03-14T06:59:13;7.15;;;4.72;;
23517;SDS011;11935;50.878;4.392;2023-03-14T07:01:39;3.20;;;2.53;;
23517;SDS011;11935;50.878;4.392;2023-03-14T07:04:06;8.77;;;5.28;;
23517;SDS011;11935;50.878;4.392;2023-03-14T07:06:33;8.80;;;5.25;;
23517;SDS011;11935;50.878;4.392;2023-03-14T07:08:59;10.05;;;5.30;;
23517;SDS011;11935;50.878;4.392;2023-03-14T07:11:25;12.20;;;5.30;;
23517;SDS011;11935;50.878;4.392;2023-03-14T07:13:51;11.30;;;4.97;;
23517;SDS011;11935;50.878;4.392;2023-03-14T07:16:17;5.88;;;3.55;;
23517;SDS011;11935;50.878;4.392;2023-03-14T07:18:43;4.47;;;3.33;;
23517;SDS011;11935;50.878;4.392;2023-03-14T07:21:10;4.75;;;2.60;;
23517;SDS011;11935;50.878;4.392;2023-03-14T07:23:36;5.45;;;2.20;;
23517;SDS011;11935;50.878;4.392;2023-03-14T07:26:02;3.85;;;1.83;;
23517;SDS011;11935;50.878;4.392;2023-03-14T07:28:28;3.35;;;1.60;;
23517;SDS011;11935;50.878;4.392;2023-03-14T07:30:54;2.78;;;1.80;;
23517;SDS011;11935;50.878;4.392;2023-03-14T07:33:20;6.07;;;2.22;;
23517;SDS011;11935;50.878;4.392;2023-03-14T07:35:47;5.72;;;1.75;;
23517;SDS011;11935;50.878;4.392;2023-03-14T07:38:13;4.88;;;1.50;;
23517;SDS011;11935;50.878;4.392;2023-03-14T07:40:39;6.07;;;1.83;;
23517;SDS011;11935;50.878;4.392;2023-03-14T07:43:06;6.60;;;1.65;;
23517;SDS011;11935;50.878;4.392;2023-03-14T07:45:32;2.92;;;1.50;;
23517;SDS011;11935;50.878;4.392;2023-03-14T07:47:58;6.43;;;1.90;;
23517;SDS011;11935;50.878;4.392;2023-03-14T07:50:25;4.53;;;1.63;;
23517;SDS011;11935;50.878;4.392;2023-03-14T07:52:51;7.15;;;2.05;;
23517;SDS011;11935;50.878;4.392;2023-03-14T07:55:17;6.28;;;1.98;;
23517;SDS011;11935;50.878;4.392;2023-03-14T07:57:43;4.60;;;2.45;;
23517;SDS011;11935;50.878;4.392;2023-03-14T08:00:10;5.85;;;2.72;;
23517;SDS011;11935;50.878;4.392;2023-03-14T08:02:36;4.63;;;2.47;;
23517;SDS011;11935;50.878;4.392;2023-03-14T08:05:02;8.45;;;3.38;;
23517;SDS011;11935;50.878;4.392;2023-03-14T08:07:29;6.18;;;3.75;;
23517;SDS011;11935;50.878;4.392;2023-03-14T08:09:55;9.18;;;3.45;;
23517;SDS011;11935;50.878;4.392;2023-03-14T08:12:21;3.90;;;3.03;;
23517;SDS011;11935;50.878;4.392;2023-03-14T08:14:47;7.75;;;3.35;;
23517;SDS011;11935;50.878;4.392;2023-03-14T08:17:13;8.35;;;2.92;;
23517;SDS011;11935;50.878;4.392;2023-03-14T08:19:40;4.03;;;2.38;;
23517;SDS011;11935;50.878;4.392;2023-03-14T08:22:06;5.00;;;2.60;;
23517;SDS011;11935;50.878;4.392;2023-03-14T08:24:32;4.60;;;2.38;;
23517;SDS011;11935;50.878;4.392;2023-03-14T08:26:59;3.58;;;2.17;;
23517;SDS011;11935;50.878;4.392;2023-03-14T08:29:25;4.05;;;1.83;;
23517;SDS011;11935;50.878;4.392;2023-03-14T08:31:51;5.53;;;1.95;;
23517;SDS011;11935;50.878;4.392;2023-03-14T08:34:17;6.13;;;2.30;;
23517;SDS011;11935;50.878;4.392;2023-03-14T08:36:43;3.50;;;1.98;;
23517;SDS011;11935;50.878;4.392;2023-03-14T08:39:09;2.90;;;2.33;;
23517;SDS011;11935;50.878;4.392;2023-03-14T08:41:35;5.15;;;2.50;;
23517;SDS011;11935;50.878;4.392;2023-03-14T08:44:05;3.45;;;2.28;;
23517;SDS011;11935;50.878;4.392;2023-03-14T08:46:32;8.90;;;2.63;;
23517;SDS011;11935;50.878;4.392;2023-03-14T08:48:58;3.72;;;2.28;;
23517;SDS011;11935;50.878;4.392;2023-03-14T08:51:24;6.18;;;2.10;;
23517;SDS011;11935;50.878;4.392;2023-03-14T08:53:50;5.53;;;2.83;;
23517;SDS011;11935;50.878;4.392;2023-03-14T08:56:16;3.38;;;1.70;;
23517;SDS011;11935;50.878;4.392;2023-03-14T08:58:42;5.55;;;2.67;;
23517;SDS011;11935;50.878;4.392;2023-03-14T09:01:09;5.65;;;2.50;;
23517;SDS011;11935;50.878;4.392;2023-03-14T09:03:36;4.82;;;2.50;;
23517;SDS011;11935;50.878;4.392;2023-03-14T09:06:06;6.03;;;2.55;;
23517;SDS011;11935;50.878;4.392;2023-03-14T09:08:33;5.93;;;2.72;;
23517;SDS011;11935;50.878;4.392;2023-03-14T09:11:00;7.00;;;3.08;;
23517;SDS011;11935;50.878;4.392;2023-03-14T09:13:26;14.68;;;3.90;;
23517;SDS011;11935;50.878;4.392;2023-03-14T09:15:55;5.70;;;3.50;;
23517;SDS011;11935;50.878;4.392;2023-03-14T09:18:22;4.15;;;2.15;;
23517;SDS011;11935;50.878;4.392;2023-03-14T09:20:48;7.57;;;3.63;;
23517;SDS011;11935;50.878;4.392;2023-03-14T09:23:15;7.18;;;3.10;;
23517;SDS011;11935;50.878;4.392;2023-03-14T09:25:41;8.23;;;3.70;;
23517;SDS011;11935;50.878;4.392;2023-03-14T09:28:07;6.07;;;2.95;;
23517;SDS011;11935;50.878;4.392;2023-03-14T09:30:33;8.70;;;2.95;;
23517;SDS011;11935;50.878;4.392;2023-03-14T09:32:59;7.03;;;2.60;;
23517;SDS011;11935;50.878;4.392;2023-03-14T09:35:25;6.93;;;1.90;;
23517;SDS011;11935;50.878;4.392;2023-03-14T09:37:52;9.75;;;2.45;;
23517;SDS011;11935;50.878;4.392;2023-03-14T09:40:18;7.45;;;2.20;;
23517;SDS011;11935;50.878;4.392;2023-03-14T09:42:45;9.23;;;2.35;;
23517;SDS011;11935;50.878;4.392;2023-03-14T09:45:35;13.02;;;2.80;;
23517;SDS011;11935;50.878;4.392;2023-03-14T09:53:17;9.45;;;2.42;;
23517;SDS011;11935;50.878;4.392;2023-03-14T09:55:47;10.32;;;2.53;;
23517;SDS011;11935;50.878;4.392;2023-03-14T09:58:16;12.32;;;2.70;;
23517;SDS011;11935;50.878;4.392;2023-03-14T10:00:43;6.63;;;2.28;;
23517;SDS011;11935;50.878;4.392;2023-03-14T10:05:41;4.70;;;2.05;;
23517;SDS011;11935;50.878;4.392;2023-03-14T10:08:11;8.07;;;2.28;;
23517;SDS011;11935;50.878;4.392;2023-03-14T10:10:38;5.53;;;1.90;;
23517;SDS011;11935;50.878;4.392;2023-03-14T10:15:36;6.60;;;2.05;;
23517;SDS011;11935;50.878;4.392;2023-03-14T10:18:03;6.18;;;1.52;;
23517;SDS011;11935;50.878;4.392;2023-03-14T10:20:42;7.32;;;2.25;;
23517;SDS011;11935;50.878;4.392;2023-03-14T10:25:44;10.35;;;1.90;;
23517;SDS011;11935;50.878;4.392;2023-03-14T10:28:23;8.93;;;1.90;;
23517;SDS011;11935;50.878;4.392;2023-03-14T10:30:50;1.42;;;0.70;;
23517;SDS011;11935;50.878;4.392;2023-03-14T10:33:22;11.95;;;1.60;;
23517;SDS011;11935;50.878;4.392;2023-03-14T10:35:57;7.55;;;1.30;;
23517;SDS011;11935;50.878;4.392;2023-03-14T10:38:24;7.95;;;2.40;;
23517;SDS011;11935;50.878;4.392;2023-03-14T10:40:51;8.55;;;1.60;;
23517;SDS011;11935;50.878;4.392;2023-03-14T10:43:19;8.15;;;1.77;;
23517;SDS011;11935;50.878;4.392;2023-03-14T10:46:00;5.78;;;1.33;;
23517;SDS011;11935;50.878;4.392;2023-03-14T10:53:26;8.45;;;1.58;;
23517;SDS011;11935;50.878;4.392;2023-03-14T10:55:52;5.13;;;1.08;;
23517;SDS011;11935;50.878;4.392;2023-03-14T10:58:22;4.55;;;1.48;;
23517;SDS011;11935;50.878;4.392;2023-03-14T11:00:53;4.65;;;0.98;;
23517;SDS011;11935;50.878;4.392;2023-03-14T11:03:23;10.32;;;1.80;;
23517;SDS011;11935;50.878;4.392;2023-03-14T11:06:03;4.03;;;1.70;;
23517;SDS011;11935;50.878;4.392;2023-03-14T11:11:06;6.07;;;1.50;;
23517;SDS011;11935;50.878;4.392;2023-03-14T11:13:36;4.60;;;1.00;;
23517;SDS011;11935;50.878;4.392;2023-03-14T11:18:42;3.85;;;1.00;;
23517;SDS011;11935;50.878;4.392;2023-03-14T11:21:13;2.58;;;0.60;;
23517;SDS011;11935;50.878;4.392;2023-03-14T11:23:48;1.98;;;0.63;;
23517;SDS011;11935;50.878;4.392;2023-03-14T11:26:25;2.50;;;0.82;;
23517;SDS011;11935;50.878;4.392;2023-03-14T11:28:55;2.00;;;0.55;;
23517;SDS011;11935;50.878;4.392;2023-03-14T11:31:26;0.95;;;0.40;;
23517;SDS011;11935;50.878;4.392;2023-03-14T11:33:59;1.55;;;0.52;;
23517;SDS011;11935;50.878;4.392;2023-03-14T11:36:29;3.88;;;0.82;;
23517;SDS011;11935;50.878;4.392;2023-03-14T11:38:57;2.13;;;0.60;;
23517;SDS011;11935;50.878;4.392;2023-03-14T11:41:29;3.83;;;0.80;;
23517;SDS011;11935;50.878;4.392;2023-03-14T11:46:33;2.55;;;0.80;;
23517;SDS011;11935;50.878;4.392;2023-03-14T11:49:05;1.60;;;0.50;;
23517;SDS011;11935;50.878;4.392;2023-03-14T11:51:35;1.55;;;0.50;;
23517;SDS011;11935;50.878;4.392;2023-03-14T11:57:10;1.67;;;0.77;;
23517;SDS011;11935;50.878;4.392;2023-03-14T12:07:23;1.98;;;0.70;;
23517;SDS011;11935;50.878;4.392;2023-03-14T12:09:53;2.40;;;0.70;;
23517;SDS011;11935;50.878;4.392;2023-03-14T12:12:21;1.98;;;0.70;;
23517;SDS011;11935;50.878;4.392;2023-03-14T12:14:52;1.38;;;0.68;;
23517;SDS011;11935;50.878;4.392;2023-03-14T12:17:40;2.55;;;0.93;;
23517;SDS011;11935;50.878;4.392;2023-03-14T12:22:35;2.30;;;0.90;;
23517;SDS011;11935;50.878;4.392;2023-03-14T12:25:18;2.60;;;1.10;;
23517;SDS011;11935;50.878;4.392;2023-03-14T12:30:44;2.25;;;1.02;;
23517;SDS011;11935;50.878;4.392;2023-03-14T12:35:39;3.55;;;1.00;;
23517;SDS011;11935;50.878;4.392;2023-03-14T12:38:27;5.82;;;1.30;;
23517;SDS011;11935;50.878;4.392;2023-03-14T12:41:00;4.30;;;1.17;;
23517;SDS011;11935;50.878;4.392;2023-03-14T12:43:29;3.03;;;1.17;;
23517;SDS011;11935;50.878;4.392;2023-03-14T12:46:15;3.88;;;1.30;;
23517;SDS011;11935;50.878;4.392;2023-03-14T12:48:45;3.53;;;1.30;;
23517;SDS011;11935;50.878;4.392;2023-03-14T12:51:13;1.70;;;1.13;;
23517;SDS011;11935;50.878;4.392;2023-03-14T12:58:35;3.33;;;1.25;;
23517;SDS011;11935;50.878;4.392;2023-03-14T13:01:04;3.97;;;1.15;;
23517;SDS011;11935;50.878;4.392;2023-03-14T13:05:59;2.42;;;1.17;;
23517;SDS011;11935;50.878;4.392;2023-03-14T13:08:42;5.70;;;2.03;;
23517;SDS011;11935;50.878;4.392;2023-03-14T13:11:20;6.03;;;3.42;;
23517;SDS011;11935;50.878;4.392;2023-03-14T13:13:48;6.53;;;2.03;;
23517;SDS011;11935;50.878;4.392;2023-03-14T13:16:16;3.08;;;1.65;;
23517;SDS011;11935;50.878;4.392;2023-03-14T13:18:44;4.95;;;2.20;;
23517;SDS011;11935;50.878;4.392;2023-03-14T13:23:37;4.75;;;2.10;;
23517;SDS011;11935;50.878;4.392;2023-03-14T13:26:03;9.18;;;1.50;;
23517;SDS011;11935;50.878;4.392;2023-03-14T13:28:35;4.85;;;2.00;;
23517;SDS011;11935;50.878;4.392;2023-03-14T13:31:01;5.90;;;1.48;;
23517;SDS011;11935;50.878;4.392;2023-03-14T13:33:28;12.65;;;2.25;;
23517;SDS011;11935;50.878;4.392;2023-03-14T13:35:58;9.93;;;2.10;;
23517;SDS011;11935;50.878;4.392;2023-03-14T13:38:25;14.27;;;2.97;;
23517;SDS011;11935;50.878;4.392;2023-03-14T13:40:54;9.30;;;2.37;;
23517;SDS011;11935;50.878;4.392;2023-03-14T13:43:28;15.98;;;3.85;;
23517;SDS011;11935;50.878;4.392;2023-03-14T13:46:02;17.00;;;2.58;;
23517;SDS011;11935;50.878;4.392;2023-03-14T13:48:29;14.82;;;2.05;;
23517;SDS011;11935;50.878;4.392;2023-03-14T13:50:58;15.45;;;2.10;;
23517;SDS011;11935;50.878;4.392;2023-03-14T13:53:25;18.38;;;2.47;;
23517;SDS011;11935;50.878;4.392;2023-03-14T13:55:51;13.30;;;1.98;;
23517;SDS011;11935;50.878;4.392;2023-03-14T13:58:28;16.15;;;2.28;;
23517;SDS011;11935;50.878;4.392;2023-03-14T14:01:05;12.93;;;1.95;;
23517;SDS011;11935;50.878;4.392;2023-03-14T14:03:32;10.48;;;3.50;;
23517;SDS011;11935;50.878;4.392;2023-03-14T14:05:59;10.23;;;2.20;;
23517;SDS011;11935;50.878;4.392;2023-03-14T14:08:26;12.68;;;2.25;;
23517;SDS011;11935;50.878;4.392;2023-03-14T14:10:53;11.45;;;2.63;;
23517;SDS011;11935;50.878;4.392;2023-03-14T14:13:20;15.90;;;2.42;;
23517;SDS011;11935;50.878;4.392;2023-03-14T14:15:48;11.80;;;1.98;;
23517;SDS011;11935;50.878;4.392;2023-03-14T14:18:17;10.80;;;2.10;;
23517;SDS011;11935;50.878;4.392;2023-03-14T14:20:45;12.65;;;2.13;;
23517;SDS011;11935;50.878;4.392;2023-03-14T14:23:12;15.88;;;2.25;;
23517;SDS011;11935;50.878;4.392;2023-03-14T14:25:39;10.77;;;2.05;;
23517;SDS011;11935;50.878;4.392;2023-03-14T14:28:17;7.47;;;1.58;;
23517;SDS011;11935;50.878;4.392;2023-03-14T14:31:05;8.73;;;1.55;;
23517;SDS011;11935;50.878;4.392;2023-03-14T14:36:45;4.65;;;1.55;;
23517;SDS011;11935;50.878;4.392;2023-03-14T14:39:12;10.45;;;1.63;;
23517;SDS011;11935;50.878;4.392;2023-03-14T14:41:41;11.93;;;1.65;;
23517;SDS011;11935;50.878;4.392;2023-03-14T14:44:10;12.57;;;1.75;;
23517;SDS011;11935;50.878;4.392;2023-03-14T14:46:37;5.10;;;1.40;;
23517;SDS011;11935;50.878;4.392;2023-03-14T14:49:13;4.57;;;0.80;;
23517;SDS011;11935;50.878;4.392;2023-03-14T14:51:41;2.42;;;0.63;;
23517;SDS011;11935;50.878;4.392;2023-03-14T14:56:35;2.05;;;0.60;;
23517;SDS011;11935;50.878;4.392;2023-03-14T14:59:02;0.80;;;0.50;;
23517;SDS011;11935;50.878;4.392;2023-03-14T15:01:36;2.58;;;0.95;;
23517;SDS011;11935;50.878;4.392;2023-03-14T15:04:09;4.18;;;0.50;;
23517;SDS011;11935;50.878;4.392;2023-03-14T15:06:36;2.92;;;0.60;;
23517;SDS011;11935;50.878;4.392;2023-03-14T15:09:02;1.23;;;0.40;;
23517;SDS011;11935;50.878;4.392;2023-03-14T15:11:28;2.47;;;0.65;;
23517;SDS011;11935;50.878;4.392;2023-03-14T15:13:54;2.05;;;0.90;;
23517;SDS011;11935;50.878;4.392;2023-03-14T15:16:22;1.40;;;0.50;;
23517;SDS011;11935;50.878;4.392;2023-03-14T15:21:15;2.78;;;0.70;;
23517;SDS011;11935;50.878;4.392;2023-03-14T15:23:41;1.80;;;0.80;;
23517;SDS011;11935;50.878;4.392;2023-03-14T15:26:13;2.30;;;0.80;;
23517;SDS011;11935;50.878;4.392;2023-03-14T15:28:40;4.40;;;0.80;;
23517;SDS011;11935;50.878;4.392;2023-03-14T15:31:10;2.10;;;0.60;;
23517;SDS011;11935;50.878;4.392;2023-03-14T15:33:36;1.45;;;0.50;;
23517;SDS011;11935;50.878;4.392;2023-03-14T15:36:03;2.78;;;0.68;;
23517;SDS011;11935;50.878;4.392;2023-03-14T15:38:29;2.30;;;0.80;;
23517;SDS011;11935;50.878;4.392;2023-03-14T15:40:56;2.97;;;0.70;;
23517;SDS011;11935;50.878;4.392;2023-03-14T15:43:22;3.35;;;0.90;;
23517;SDS011;11935;50.878;4.392;2023-03-14T15:45:48;2.35;;;0.80;;
23517;SDS011;11935;50.878;4.392;2023-03-14T15:48:19;2.17;;;0.90;;
23517;SDS011;11935;50.878;4.392;2023-03-14T15:50:46;3.08;;;0.90;;
23517;SDS011;11935;50.878;4.392;2023-03-14T15:53:12;1.45;;;0.98;;
23517;SDS011;11935;50.878;4.392;2023-03-14T15:55:38;2.50;;;0.82;;
23517;SDS011;11935;50.878;4.392;2023-03-14T15:58:04;3.95;;;0.80;;
23517;SDS011;11935;50.878;4.392;2023-03-14T16:00:31;6.18;;;1.75;;